Terminal Aerodrome Forecast
Issued by NWS

Home | Current Version | Previous Version | Text Only | Print | Product List | Glossary Off
Versions: 1 2 3 4 5 6 7 8 9 10 11 12 13 14 15 16

637
FTUS42 KMHX 241306 AAA
TAFPGV
TAF AMD
KPGV 241306Z 2413/2512 03005KT P6SM SCT050
      TEMPO 2413/2414 5SM BR SCT001
     FM250900 02003KT P6SM BKN015
      AMD LTD TO CLD VIS AND WIND=

USA.gov is the U.S. government's official web portal to all federal, state and local government web resources and services.